createdAt,value
2018-02-07T00:01:29.115Z,19.90
2018-02-07T00:03:55.711Z,19.50
2018-02-07T00:06:22.308Z,21.10
2018-02-07T00:08:48.912Z,18.93
2018-02-07T00:11:15.513Z,20.20
2018-02-07T00:13:42.119Z,19.80
2018-02-07T00:16:08.723Z,19.27
2018-02-07T00:18:35.318Z,20.37
2018-02-07T00:21:01.940Z,20.37
2018-02-07T00:23:28.543Z,20.67
2018-02-07T00:25:55.395Z,20.70
2018-02-07T00:28:21.991Z,20.13
2018-02-07T00:30:48.613Z,20.40
2018-02-07T00:33:15.204Z,20.10
2018-02-07T00:35:41.889Z,19.37
2018-02-07T00:38:08.480Z,19.77
2018-02-07T00:40:35.075Z,19.10
2018-02-07T00:43:01.671Z,20.23
2018-02-07T00:45:28.275Z,19.70
2018-02-07T00:47:54.938Z,20.10
2018-02-07T00:50:21.538Z,20.10
2018-02-07T00:52:48.136Z,20.13
2018-02-07T00:55:14.745Z,19.50
2018-02-07T00:57:41.347Z,19.77
2018-02-07T01:00:07.943Z,19.27
2018-02-07T01:02:34.924Z,19.03
2018-02-07T01:05:01.529Z,20.40
2018-02-07T01:07:28.137Z,20.30
2018-02-07T01:09:54.739Z,19.13
2018-02-07T01:12:21.341Z,20.30
2018-02-07T01:14:48.055Z,21.47
2018-02-07T01:17:14.664Z,20.60
2018-02-07T01:19:41.265Z,20.30
2018-02-07T01:22:07.875Z,19.00
2018-02-07T01:24:34.482Z,20.83
2018-02-07T01:27:01.103Z,19.83
2018-02-07T01:29:27.699Z,18.53
2018-02-07T01:31:54.290Z,19.80
2018-02-07T01:34:20.898Z,20.77
2018-02-07T01:36:47.496Z,20.77
2018-02-07T01:39:14.124Z,19.77
2018-02-07T01:41:40.712Z,20.63
2018-02-07T01:44:07.311Z,20.00
2018-02-07T01:46:33.920Z,20.50
2018-02-07T01:49:00.523Z,19.23
2018-02-07T01:51:27.487Z,21.10
2018-02-07T01:53:54.087Z,21.10
2018-02-07T01:56:20.699Z,19.90
2018-02-07T01:58:47.312Z,19.33
2018-02-07T02:01:13.907Z,19.17
2018-02-07T02:03:40.515Z,19.60
2018-02-07T02:06:07.133Z,21.20
2018-02-07T02:08:33.715Z,20.87
2018-02-07T02:11:00.344Z,20.73
2018-02-07T02:13:26.943Z,20.40
2018-02-07T02:15:53.599Z,20.20
2018-02-07T02:18:20.211Z,19.77
2018-02-07T02:20:46.815Z,20.10
2018-02-07T02:23:13.416Z,19.33
2018-02-07T02:25:40.022Z,20.70
2018-02-07T02:28:06.615Z,19.70
2018-02-07T02:30:33.235Z,18.53
2018-02-07T02:32:59.851Z,20.17
2018-02-07T02:35:26.456Z,19.33
2018-02-07T02:37:53.055Z,19.43
2018-02-07T02:40:19.660Z,19.10
2018-02-07T02:42:46.267Z,20.07
2018-02-07T02:45:12.883Z,19.40
2018-02-07T02:47:39.484Z,19.83
2018-02-07T02:50:06.099Z,19.53
2018-02-07T02:52:32.700Z,18.83
2018-02-07T02:54:59.295Z,19.00
2018-02-07T02:57:25.903Z,19.37
2018-02-07T02:59:52.499Z,19.73
2018-02-07T03:02:19.112Z,18.90
2018-02-07T03:04:45.703Z,19.80
2018-02-07T03:07:12.319Z,18.97
2018-02-07T03:09:38.921Z,19.00
2018-02-07T03:12:05.515Z,18.80
2018-02-07T03:14:32.119Z,19.17
2018-02-07T03:16:58.731Z,19.90
2018-02-07T03:19:25.346Z,19.37
2018-02-07T03:21:51.939Z,19.63
2018-02-07T03:24:18.556Z,19.97
2018-02-07T03:26:45.151Z,20.43
2018-02-07T03:29:11.829Z,20.47
2018-02-07T03:31:38.428Z,19.60
2018-02-07T03:34:05.028Z,19.83
2018-02-07T03:36:31.638Z,21.00
2018-02-07T03:38:58.240Z,20.20
2018-02-07T03:41:24.850Z,20.47
2018-02-07T03:43:51.443Z,20.30
2018-02-07T03:46:18.107Z,19.53
2018-02-07T03:48:44.712Z,20.10
2018-02-07T03:51:11.318Z,20.03
2018-02-07T03:53:37.944Z,20.20
2018-02-07T03:56:04.539Z,19.83
2018-02-07T03:58:31.143Z,21.00
2018-02-07T04:00:57.748Z,19.90
2018-02-07T04:03:24.343Z,20.63
2018-02-07T04:05:50.943Z,20.17
2018-02-07T04:08:17.556Z,20.17
2018-02-07T04:10:44.175Z,19.30
2018-02-07T04:13:10.775Z,20.63
2018-02-07T04:15:37.379Z,20.30
2018-02-07T04:18:04.015Z,20.40
2018-02-07T04:20:30.607Z,20.60
2018-02-07T04:22:57.224Z,19.40
2018-02-07T04:25:23.823Z,20.37
2018-02-07T04:27:50.440Z,21.07
2018-02-07T04:30:17.036Z,21.47
2018-02-07T04:32:43.632Z,21.23
2018-02-07T04:35:10.235Z,21.73
2018-02-07T04:37:36.835Z,20.87
2018-02-07T04:40:03.440Z,21.00
2018-02-07T04:42:30.039Z,20.03
2018-02-07T04:44:56.707Z,21.30
2018-02-07T04:47:23.315Z,20.83
2018-02-07T04:49:49.915Z,19.97
2018-02-07T04:52:16.519Z,20.60
2018-02-07T04:54:43.115Z,20.70
2018-02-07T04:57:09.719Z,21.47
2018-02-07T04:59:36.315Z,20.70
2018-02-07T05:02:02.932Z,19.97
2018-02-07T05:04:29.532Z,19.97
2018-02-07T05:06:56.127Z,20.20
2018-02-07T05:09:22.731Z,19.20
2018-02-07T05:11:49.332Z,20.13
2018-02-07T05:14:15.944Z,21.23
2018-02-07T05:16:42.539Z,19.77
2018-02-07T05:19:09.140Z,20.53
2018-02-07T05:21:35.743Z,21.10
2018-02-07T05:24:02.345Z,21.60
2018-02-07T05:26:28.951Z,21.00
2018-02-07T05:28:55.559Z,21.27
2018-02-07T05:31:22.162Z,20.83
2018-02-07T05:33:48.772Z,21.70
2018-02-07T05:36:15.373Z,23.03
2018-02-07T05:38:41.985Z,21.00
2018-02-07T05:41:08.583Z,21.03
2018-02-07T05:43:35.180Z,21.33
2018-02-07T05:46:01.783Z,21.60
2018-02-07T05:48:28.383Z,21.40
2018-02-07T05:50:54.995Z,22.77
2018-02-07T05:53:21.591Z,21.83
2018-02-07T05:55:48.215Z,22.73
2018-02-07T05:58:14.815Z,22.37
2018-02-07T06:00:41.411Z,24.13
2018-02-07T06:03:08.023Z,24.30
2018-02-07T06:05:34.624Z,23.70
2018-02-07T06:08:01.259Z,22.23
2018-02-07T06:10:27.854Z,22.67
2018-02-07T06:12:54.467Z,23.90
2018-02-07T06:15:21.071Z,24.57
2018-02-07T06:17:47.677Z,23.10
2018-02-07T06:20:14.280Z,24.50
2018-02-07T06:22:40.884Z,24.87
2018-02-07T06:25:07.500Z,22.70
2018-02-07T06:27:34.094Z,24.77
2018-02-07T06:30:00.701Z,23.73
2018-02-07T06:32:27.309Z,23.17
2018-02-07T06:34:53.907Z,23.00
2018-02-07T06:37:20.520Z,23.13
2018-02-07T06:39:47.119Z,23.50
2018-02-07T06:42:13.724Z,24.10
2018-02-07T06:44:40.362Z,23.87
2018-02-07T06:47:06.927Z,23.80
2018-02-07T06:49:33.531Z,23.60
2018-02-07T06:52:00.131Z,23.10
2018-02-07T06:54:26.740Z,22.77
2018-02-07T06:56:53.340Z,24.07
2018-02-07T06:59:19.938Z,22.47
2018-02-07T07:01:46.549Z,23.40
2018-02-07T07:04:13.140Z,22.80
2018-02-07T07:06:39.758Z,24.27
2018-02-07T07:09:06.355Z,24.43
2018-02-07T07:11:32.955Z,23.57
2018-02-07T07:13:59.559Z,22.87
2018-02-07T07:16:26.206Z,23.40
2018-02-07T07:18:52.782Z,22.90
2018-02-07T07:21:19.374Z,23.40
2018-02-07T07:23:46.000Z,24.70
2018-02-07T07:26:12.604Z,24.10
2018-02-07T07:28:39.208Z,23.50
2018-02-07T07:31:05.815Z,23.20
2018-02-07T07:33:32.419Z,24.40
2018-02-07T07:35:59.183Z,24.60
2018-02-07T07:38:27.748Z,25.47
2018-02-07T07:40:54.582Z,24.10
2018-02-07T07:43:21.208Z,23.20
2018-02-07T07:45:47.821Z,23.80
2018-02-07T07:48:14.423Z,24.80
2018-02-07T07:50:41.023Z,23.97
2018-02-07T07:53:07.636Z,23.97
2018-02-07T07:55:34.236Z,23.77
2018-02-07T07:58:00.871Z,25.70
2018-02-07T08:00:27.472Z,24.00
2018-02-07T08:02:54.072Z,24.50
2018-02-07T08:05:20.672Z,24.83
2018-02-07T08:07:47.271Z,24.60
2018-02-07T08:10:13.879Z,23.90
2018-02-07T08:12:40.479Z,24.47
2018-02-07T08:15:07.096Z,24.87
2018-02-07T08:17:33.691Z,24.13
2018-02-07T08:20:00.291Z,24.70
2018-02-07T08:22:26.899Z,24.90
2018-02-07T08:24:53.503Z,24.00
2018-02-07T08:27:20.107Z,24.23
2018-02-07T08:29:46.703Z,24.00
2018-02-07T08:32:13.331Z,23.13
2018-02-07T08:34:39.936Z,24.07
2018-02-07T08:37:06.535Z,25.27
2018-02-07T08:39:33.431Z,23.37
2018-02-07T08:42:00.045Z,25.60
2018-02-07T08:44:26.635Z,24.43
2018-02-07T08:46:53.236Z,24.50
2018-02-07T08:49:19.851Z,26.33
2018-02-07T08:51:46.455Z,25.20
2018-02-07T08:54:13.087Z,23.83
2018-02-07T08:56:39.695Z,24.70
2018-02-07T08:59:06.291Z,25.50
2018-02-07T09:01:32.928Z,25.37
2018-02-07T09:03:59.530Z,26.00
2018-02-07T09:06:26.123Z,24.93
2018-02-07T09:08:52.736Z,24.50
2018-02-07T09:11:19.338Z,27.40
2018-02-07T09:13:45.944Z,25.47
2018-02-07T09:16:12.543Z,25.40
2018-02-07T09:18:39.139Z,23.90
2018-02-07T09:21:07.378Z,26.10
2018-02-07T09:23:33.971Z,25.40
2018-02-07T09:26:00.576Z,26.30
2018-02-07T09:28:27.175Z,25.13
2018-02-07T09:30:53.825Z,26.17
2018-02-07T09:33:20.407Z,25.30
2018-02-07T09:35:47.003Z,26.57
2018-02-07T09:38:13.609Z,26.87
2018-02-07T09:40:40.208Z,25.70
2018-02-07T09:43:06.811Z,26.37
2018-02-07T09:45:33.407Z,27.17
2018-02-07T09:48:00.025Z,27.70
2018-02-07T09:50:26.624Z,26.43
2018-02-07T09:52:53.219Z,27.50
2018-02-07T09:55:19.820Z,26.60
2018-02-07T09:57:46.419Z,27.70
2018-02-07T10:00:13.023Z,27.17
2018-02-07T10:02:39.622Z,27.63
2018-02-07T10:05:06.331Z,28.20
2018-02-07T10:07:32.920Z,28.20
2018-02-07T10:09:59.510Z,28.20
2018-02-07T10:12:26.119Z,28.70
2018-02-07T10:14:52.716Z,27.03
2018-02-07T10:17:19.323Z,28.57
2018-02-07T10:19:46.148Z,27.97
2018-02-07T10:22:12.807Z,27.70
2018-02-07T10:24:39.411Z,28.30
2018-02-07T10:27:06.016Z,29.30
2018-02-07T10:29:32.610Z,29.80
2018-02-07T10:31:59.226Z,29.87
2018-02-07T10:34:25.836Z,29.73
2018-02-07T10:36:52.441Z,29.47
2018-02-07T10:39:19.048Z,28.80
2018-02-07T10:41:45.648Z,29.00
2018-02-07T10:44:12.247Z,28.77
2018-02-07T10:46:38.851Z,29.70
2018-02-07T10:49:05.442Z,35.10
2018-02-07T10:51:32.051Z,85.67
2018-02-07T10:53:58.657Z,53.37
2018-02-07T10:56:25.319Z,43.87
2018-02-07T10:58:51.922Z,35.30
2018-02-07T11:01:18.529Z,34.00
2018-02-07T11:03:45.131Z,47.50
2018-02-07T11:06:11.734Z,56.00
2018-02-07T11:08:38.339Z,58.17
2018-02-07T11:11:04.940Z,36.30
2018-02-07T11:13:31.555Z,48.70
2018-02-07T11:15:58.148Z,35.23
2018-02-07T11:18:24.754Z,36.80
2018-02-07T11:20:51.356Z,31.50
2018-02-07T11:23:17.951Z,31.57
2018-02-07T11:25:44.580Z,29.60
2018-02-07T11:28:11.210Z,30.23
2018-02-07T11:30:37.775Z,30.43
2018-02-07T11:33:04.394Z,31.83
2018-02-07T11:35:30.998Z,29.50
2018-02-07T11:37:57.613Z,28.63
2018-02-07T11:40:24.210Z,28.60
2018-02-07T11:42:50.828Z,29.00
2018-02-07T11:45:17.427Z,29.10
2018-02-07T11:47:44.032Z,29.03
2018-02-07T11:50:10.635Z,29.57
2018-02-07T11:52:37.239Z,29.60
2018-02-07T11:55:03.875Z,29.10
2018-02-07T11:57:30.475Z,29.47
2018-02-07T11:59:57.075Z,29.00
2018-02-07T12:02:23.686Z,29.20
2018-02-07T12:04:50.287Z,29.40
2018-02-07T12:07:16.903Z,27.90
2018-02-07T12:09:43.511Z,29.33
2018-02-07T12:12:10.130Z,28.53
2018-02-07T12:14:36.723Z,29.90
2018-02-07T12:17:03.340Z,29.70
2018-02-07T12:19:29.955Z,30.57
2018-02-07T12:21:56.586Z,33.60
2018-02-07T12:24:23.152Z,31.57
2018-02-07T12:26:49.753Z,30.23
2018-02-07T12:29:16.347Z,29.53
2018-02-07T12:31:42.952Z,30.97
2018-02-07T12:34:09.548Z,30.10
2018-02-07T12:36:36.164Z,30.93
2018-02-07T12:39:02.762Z,31.50
2018-02-07T12:41:29.359Z,30.80
2018-02-07T12:43:55.968Z,30.17
2018-02-07T12:46:22.563Z,29.17
2018-02-07T12:48:49.179Z,31.47
2018-02-07T12:51:15.780Z,31.93
2018-02-07T12:53:42.395Z,30.67
2018-02-07T12:56:09.004Z,31.23
2018-02-07T12:58:35.603Z,31.87
2018-02-07T13:01:02.208Z,32.30
2018-02-07T13:03:28.808Z,31.60
2018-02-07T13:05:55.419Z,33.60
2018-02-07T13:08:22.021Z,34.90
2018-02-07T13:10:48.615Z,32.70
2018-02-07T13:13:15.229Z,34.03
2018-02-07T13:15:41.828Z,34.40
2018-02-07T13:18:08.431Z,35.23
2018-02-07T13:20:35.027Z,36.07
2018-02-07T13:23:01.637Z,37.67
2018-02-07T13:25:28.232Z,36.77
2018-02-07T13:27:54.831Z,36.67
2018-02-07T13:30:21.435Z,36.97
2018-02-07T13:32:48.037Z,34.97
2018-02-07T13:35:14.642Z,35.63
2018-02-07T13:37:41.239Z,34.67
2018-02-07T13:40:07.856Z,34.10
2018-02-07T13:42:34.455Z,35.67
2018-02-07T13:45:01.055Z,36.60
2018-02-07T13:47:27.659Z,35.90
2018-02-07T13:49:54.260Z,34.97
2018-02-07T13:52:20.864Z,34.43
2018-02-07T13:54:47.464Z,35.40
2018-02-07T13:57:14.108Z,35.03
2018-02-07T13:59:40.703Z,33.97
2018-02-07T14:02:07.299Z,34.73
2018-02-07T14:04:33.900Z,33.53
2018-02-07T14:07:00.500Z,33.23
2018-02-07T14:09:27.111Z,34.50
2018-02-07T14:11:53.707Z,32.23
2018-02-07T14:14:20.335Z,31.50
2018-02-07T14:16:46.955Z,31.10
2018-02-07T14:19:13.567Z,32.07
2018-02-07T14:21:40.166Z,31.47
2018-02-07T14:24:07.911Z,31.70
2018-02-07T14:26:34.524Z,30.53
2018-02-07T14:29:01.120Z,31.60
2018-02-07T14:31:27.719Z,32.23
2018-02-07T14:33:54.340Z,31.17
2018-02-07T14:36:20.941Z,32.67
2018-02-07T14:38:47.551Z,32.37
2018-02-07T14:41:14.148Z,31.50
2018-02-07T14:43:40.769Z,31.83
2018-02-07T14:46:07.367Z,32.73
2018-02-07T14:48:33.963Z,30.53
2018-02-07T14:51:00.570Z,31.43
2018-02-07T14:53:27.167Z,31.30
2018-02-07T14:55:53.772Z,32.60
2018-02-07T14:58:20.381Z,32.20
2018-02-07T15:00:47.028Z,32.47
2018-02-07T15:03:13.627Z,32.40
2018-02-07T15:05:40.227Z,33.13
2018-02-07T15:08:06.849Z,33.07
2018-02-07T15:10:33.447Z,32.50
2018-02-07T15:13:00.058Z,32.57
2018-02-07T15:15:26.653Z,34.20
2018-02-07T15:17:53.263Z,33.90
2018-02-07T15:20:19.861Z,32.43
2018-02-07T15:22:46.488Z,31.87
2018-02-07T15:25:13.092Z,35.20
2018-02-07T15:27:39.687Z,35.30
2018-02-07T15:30:06.294Z,34.00
2018-02-07T15:32:32.903Z,34.70
2018-02-07T15:34:59.823Z,34.10
2018-02-07T15:37:26.423Z,36.40
2018-02-07T15:39:53.028Z,36.10
2018-02-07T15:42:19.639Z,32.80
2018-02-07T15:44:46.240Z,33.33
2018-02-07T15:47:12.859Z,32.97
2018-02-07T15:49:39.467Z,32.27
2018-02-07T15:52:06.088Z,33.10
2018-02-07T15:54:32.687Z,33.60
2018-02-07T15:56:59.293Z,32.40
2018-02-07T15:59:25.895Z,33.77
2018-02-07T16:01:52.507Z,33.53
2018-02-07T16:04:19.139Z,33.03
2018-02-07T16:06:45.719Z,31.57
2018-02-07T16:09:12.340Z,31.50
2018-02-07T16:11:38.943Z,30.90
2018-02-07T16:14:05.543Z,31.30
2018-02-07T16:16:32.151Z,32.07
2018-02-07T16:18:58.747Z,33.73
2018-02-07T16:21:25.355Z,31.93
2018-02-07T16:23:51.955Z,33.17
2018-02-07T16:26:18.572Z,32.40
2018-02-07T16:28:45.178Z,31.30
2018-02-07T16:31:11.780Z,33.43
2018-02-07T16:33:38.386Z,30.70
2018-02-07T16:36:04.990Z,30.73
2018-02-07T16:38:31.594Z,32.50
2018-02-07T16:40:58.209Z,31.60
2018-02-07T16:43:24.837Z,30.33
2018-02-07T16:45:51.431Z,30.97
2018-02-07T16:48:18.060Z,31.80
2018-02-07T16:50:44.661Z,32.30
2018-02-07T16:53:11.269Z,30.90
2018-02-07T16:55:37.889Z,36.90
2018-02-07T16:58:04.483Z,37.50
2018-02-07T17:00:31.083Z,39.33
2018-02-07T17:02:57.688Z,39.00
2018-02-07T17:05:24.287Z,40.10
2018-02-07T17:07:50.900Z,36.47
2018-02-07T17:10:17.504Z,35.80
2018-02-07T17:12:45.104Z,34.37
2018-02-07T17:15:11.711Z,34.17
2018-02-07T17:17:39.437Z,33.77
2018-02-07T17:20:06.055Z,33.10
2018-02-07T17:22:32.653Z,32.17
2018-02-07T17:24:59.249Z,31.47
2018-02-07T17:27:25.884Z,31.50
2018-02-07T17:29:52.490Z,31.97
2018-02-07T17:32:19.092Z,31.80
2018-02-07T17:34:45.699Z,30.53
2018-02-07T17:37:12.296Z,32.13
2018-02-07T17:39:38.914Z,31.83
2018-02-07T17:42:05.495Z,31.37
2018-02-07T17:44:32.103Z,31.20
2018-02-07T17:46:58.700Z,29.90
2018-02-07T17:49:25.296Z,30.07
2018-02-07T17:51:51.901Z,32.40
2018-02-07T17:54:18.499Z,31.40
2018-02-07T17:56:45.114Z,31.50
2018-02-07T17:59:11.728Z,32.93
2018-02-07T18:01:38.729Z,31.17
2018-02-07T18:04:05.328Z,32.07
2018-02-07T18:06:31.928Z,31.53
2018-02-07T18:08:58.539Z,34.17
2018-02-07T18:11:25.143Z,33.00
2018-02-07T18:13:51.833Z,32.43
2018-02-07T18:16:18.427Z,30.90
2018-02-07T18:18:45.043Z,31.77
2018-02-07T18:21:11.643Z,31.03
2018-02-07T18:23:38.241Z,32.57
2018-02-07T18:26:04.843Z,30.63
2018-02-07T18:28:31.697Z,30.90
2018-02-07T18:31:00.808Z,32.07
2018-02-07T18:33:28.893Z,30.27
2018-02-07T18:35:58.492Z,29.80
2018-02-07T18:38:25.298Z,31.07
2018-02-07T18:40:51.944Z,31.20
2018-02-07T18:43:18.540Z,28.47
2018-02-07T18:45:45.148Z,30.73
2018-02-07T18:48:11.751Z,29.07
2018-02-07T18:50:38.355Z,29.83
2018-02-07T18:53:04.964Z,30.23
2018-02-07T18:55:31.563Z,29.83
2018-02-07T18:57:58.191Z,29.80
2018-02-07T19:00:24.787Z,30.47
2018-02-07T19:02:51.380Z,31.43
2018-02-07T19:05:17.994Z,29.03
2018-02-07T19:07:44.588Z,29.07
2018-02-07T19:10:11.200Z,30.67
2018-02-07T19:12:37.799Z,29.63
2018-02-07T19:15:04.437Z,28.13
2018-02-07T19:17:31.864Z,28.40
2018-02-07T19:19:58.576Z,29.70
2018-02-07T19:22:25.168Z,28.27
2018-02-07T19:24:51.755Z,28.93
2018-02-07T19:27:18.369Z,28.63
2018-02-07T19:29:44.959Z,28.70
2018-02-07T19:32:11.568Z,29.20
2018-02-07T19:34:38.167Z,27.50
2018-02-07T19:37:04.798Z,27.87
2018-02-07T19:39:31.396Z,26.33
2018-02-07T19:41:57.995Z,27.27
2018-02-07T19:44:24.603Z,27.90
2018-02-07T19:46:51.203Z,28.50
2018-02-07T19:49:17.849Z,28.30
2018-02-07T19:51:44.461Z,31.27
2018-02-07T19:54:11.062Z,29.43
2018-02-07T19:56:37.666Z,30.20
2018-02-07T19:59:04.267Z,31.00
2018-02-07T20:01:30.896Z,30.60
2018-02-07T20:03:57.498Z,31.70
2018-02-07T20:06:24.095Z,33.80
2018-02-07T20:08:50.712Z,34.40
2018-02-07T20:11:17.311Z,32.17
2018-02-07T20:13:43.931Z,29.67
2018-02-07T20:16:10.524Z,30.67
2018-02-07T20:18:37.123Z,30.23
2018-02-07T20:21:03.773Z,28.63
2018-02-07T20:23:30.359Z,28.40
2018-02-07T20:25:56.983Z,31.30
2018-02-07T20:28:23.589Z,30.73
2018-02-07T20:30:50.207Z,29.10
2018-02-07T20:33:16.823Z,28.00
2018-02-07T20:35:43.440Z,27.50
2018-02-07T20:38:10.088Z,26.20
2018-02-07T20:40:36.669Z,26.40
2018-02-07T20:43:03.295Z,26.23
2018-02-07T20:45:29.895Z,26.83
2018-02-07T20:47:56.540Z,26.87
2018-02-07T20:50:23.144Z,27.13
2018-02-07T20:52:49.743Z,28.97
2018-02-07T20:55:16.384Z,28.27
2018-02-07T20:57:42.984Z,27.60
2018-02-07T21:00:09.590Z,27.47
2018-02-07T21:02:36.202Z,26.53
2018-02-07T21:05:02.804Z,27.17
2018-02-07T21:07:30.344Z,26.70
2018-02-07T21:09:56.954Z,26.80
2018-02-07T21:12:23.659Z,26.53
2018-02-07T21:14:50.259Z,26.87
2018-02-07T21:17:16.856Z,27.60
2018-02-07T21:19:43.463Z,26.03
2018-02-07T21:22:10.064Z,27.10
2018-02-07T21:24:36.700Z,27.70
2018-02-07T21:27:03.300Z,26.40
2018-02-07T21:29:29.923Z,24.40
2018-02-07T21:31:56.535Z,24.83
2018-02-07T21:34:23.138Z,26.57
2018-02-07T21:36:49.745Z,25.70
2018-02-07T21:39:16.348Z,25.90
2018-02-07T21:41:42.957Z,25.53
2018-02-07T21:44:09.555Z,26.50
2018-02-07T21:46:36.174Z,26.10
2018-02-07T21:49:02.768Z,25.53
2018-02-07T21:51:29.372Z,24.63
2018-02-07T21:53:55.971Z,25.50
2018-02-07T21:56:22.575Z,24.30
2018-02-07T21:58:49.184Z,25.70
2018-02-07T22:01:15.792Z,25.13
2018-02-07T22:03:42.423Z,25.63
2018-02-07T22:06:09.015Z,26.33
2018-02-07T22:08:35.615Z,24.97
2018-02-07T22:11:02.220Z,23.80
2018-02-07T22:13:28.825Z,24.50
2018-02-07T22:15:55.442Z,24.47
2018-02-07T22:18:22.041Z,25.00
2018-02-07T22:20:48.639Z,24.67
2018-02-07T22:23:15.259Z,23.17
2018-02-07T22:25:41.859Z,23.30
2018-02-07T22:28:08.472Z,24.47
2018-02-07T22:30:35.064Z,23.27
2018-02-07T22:33:01.693Z,23.63
2018-02-07T22:35:28.283Z,23.73
2018-02-07T22:37:54.879Z,22.80
2018-02-07T22:40:21.487Z,23.80
2018-02-07T22:42:48.092Z,23.30
2018-02-07T22:45:14.704Z,22.60
2018-02-07T22:47:41.300Z,23.20
2018-02-07T22:50:07.920Z,22.93
2018-02-07T22:52:34.515Z,22.20
2018-02-07T22:55:01.112Z,22.87
2018-02-07T22:57:27.714Z,23.43
2018-02-07T22:59:54.312Z,23.20
2018-02-07T23:02:20.915Z,21.57
2018-02-07T23:04:47.515Z,23.80
2018-02-07T23:07:14.131Z,23.83
2018-02-07T23:09:40.732Z,23.23
2018-02-07T23:12:07.327Z,22.83
2018-02-07T23:14:33.927Z,22.80
2018-02-07T23:17:00.524Z,22.97
2018-02-07T23:19:27.132Z,23.03
2018-02-07T23:21:53.726Z,23.10
2018-02-07T23:24:20.348Z,22.70
2018-02-07T23:26:46.949Z,24.27
2018-02-07T23:29:13.547Z,24.43
2018-02-07T23:31:40.157Z,23.73
2018-02-07T23:34:06.755Z,21.73
2018-02-07T23:36:33.363Z,22.87
2018-02-07T23:38:59.964Z,23.27
2018-02-07T23:41:26.575Z,22.80
2018-02-07T23:43:53.171Z,21.70
2018-02-07T23:46:19.979Z,22.97
2018-02-07T23:48:46.572Z,22.67
2018-02-07T23:51:13.176Z,23.27
2018-02-07T23:53:39.785Z,24.97
2018-02-07T23:56:06.379Z,22.80
2018-02-07T23:58:32.983Z,22.50
